createdAt,value
2017-07-02T00:02:11.588Z,5.70
2017-07-02T00:04:39.817Z,6.37
2017-07-02T00:07:07.274Z,6.03
2017-07-02T00:09:34.737Z,6.10
2017-07-02T00:12:02.206Z,6.23
2017-07-02T00:14:29.726Z,6.70
2017-07-02T00:16:57.227Z,5.73
2017-07-02T00:19:24.790Z,6.63
2017-07-02T00:21:52.350Z,6.33
2017-07-02T00:24:19.902Z,6.20
2017-07-02T00:26:47.363Z,6.63
2017-07-02T00:29:14.934Z,5.93
2017-07-02T00:31:43.203Z,6.80
2017-07-02T00:34:11.435Z,5.80
2017-07-02T00:36:38.954Z,5.70
2017-07-02T00:39:07.183Z,6.00
2017-07-02T00:41:34.643Z,5.50
2017-07-02T00:44:02.119Z,5.80
2017-07-02T00:46:29.613Z,5.10
2017-07-02T00:48:57.066Z,5.87
2017-07-02T00:51:26.297Z,5.93
2017-07-02T00:53:53.794Z,5.20
2017-07-02T00:56:21.251Z,5.93
2017-07-02T00:58:48.700Z,5.37
2017-07-02T01:01:16.265Z,4.93
2017-07-02T01:03:43.709Z,5.07
2017-07-02T01:06:11.173Z,4.30
2017-07-02T01:08:38.629Z,4.17
2017-07-02T01:11:06.095Z,4.77
2017-07-02T01:13:34.357Z,4.10
2017-07-02T01:16:01.827Z,4.70
2017-07-02T01:18:31.065Z,5.53
2017-07-02T01:20:58.570Z,4.67
2017-07-02T01:23:26.040Z,4.73
2017-07-02T01:25:54.278Z,3.90
2017-07-02T01:28:21.752Z,4.77
2017-07-02T01:30:49.229Z,4.03
2017-07-02T01:33:17.450Z,4.33
2017-07-02T01:35:45.053Z,4.67
2017-07-02T01:38:12.531Z,4.00
2017-07-02T01:40:40.797Z,5.40
2017-07-02T01:43:08.242Z,3.70
2017-07-02T01:45:36.530Z,4.70
2017-07-02T01:48:04.780Z,4.40
2017-07-02T01:50:32.254Z,3.57
2017-07-02T01:53:00.491Z,3.87
2017-07-02T01:55:28.039Z,4.63
2017-07-02T01:57:56.556Z,4.53
2017-07-02T02:00:24.102Z,4.77
2017-07-02T02:03:03.559Z,3.83
2017-07-02T02:05:31.110Z,3.67
2017-07-02T02:07:58.594Z,4.60
2017-07-02T02:10:26.839Z,4.33
2017-07-02T02:12:54.379Z,3.30
2017-07-02T02:15:21.858Z,4.43
2017-07-02T02:17:49.322Z,4.83
2017-07-02T02:20:16.797Z,4.57
2017-07-02T02:22:45.027Z,4.47
2017-07-02T02:25:12.491Z,5.00
2017-07-02T02:27:39.963Z,4.73
2017-07-02T02:30:07.422Z,4.70
2017-07-02T02:32:34.883Z,5.00
2017-07-02T02:35:02.430Z,3.83
2017-07-02T02:37:29.907Z,4.40
2017-07-02T02:39:58.147Z,5.60
2017-07-02T02:42:25.823Z,4.60
2017-07-02T02:44:53.394Z,5.30
2017-07-02T02:47:21.661Z,5.80
2017-07-02T02:49:49.117Z,4.60
2017-07-02T02:52:16.683Z,4.80
2017-07-02T02:54:44.154Z,4.57
2017-07-02T02:57:12.405Z,5.00
2017-07-02T02:59:39.973Z,5.63
2017-07-02T03:02:07.443Z,5.60
2017-07-02T03:04:35.699Z,5.37
2017-07-02T03:07:03.254Z,6.30
2017-07-02T03:09:30.826Z,5.70
2017-07-02T03:11:59.102Z,5.57
2017-07-02T03:14:27.324Z,5.80
2017-07-02T03:16:54.835Z,5.60
2017-07-02T03:19:23.113Z,5.50
2017-07-02T03:21:51.389Z,6.07
2017-07-02T03:24:19.646Z,6.20
2017-07-02T03:26:47.217Z,8.23
2017-07-02T03:29:14.760Z,5.50
2017-07-02T03:31:42.238Z,7.20
2017-07-02T03:34:10.509Z,6.40
2017-07-02T03:36:38.779Z,5.77
2017-07-02T03:39:06.338Z,7.07
2017-07-02T03:41:33.823Z,6.93
2017-07-02T03:44:01.304Z,6.60
2017-07-02T03:46:28.752Z,6.20
2017-07-02T03:48:56.219Z,6.90
2017-07-02T03:51:23.711Z,6.20
2017-07-02T03:53:51.169Z,7.33
2017-07-02T03:56:18.646Z,7.63
2017-07-02T03:58:46.897Z,7.33
2017-07-02T04:01:14.456Z,7.30
2017-07-02T04:03:42.033Z,7.43
2017-07-02T04:06:09.490Z,7.50
2017-07-02T04:08:37.775Z,8.70
2017-07-02T04:11:05.205Z,7.80
2017-07-02T04:13:32.680Z,8.40
2017-07-02T04:16:00.914Z,7.87
2017-07-02T04:18:28.382Z,6.80
2017-07-02T04:20:55.830Z,6.57
2017-07-02T04:23:23.319Z,8.53
2017-07-02T04:25:50.866Z,8.17
2017-07-02T04:28:18.444Z,7.37
2017-07-02T04:30:46.679Z,6.10
2017-07-02T04:33:14.142Z,6.53
2017-07-02T04:35:41.620Z,6.50
2017-07-02T04:38:09.067Z,5.93
2017-07-02T04:40:36.576Z,7.30
2017-07-02T04:43:04.033Z,5.73
2017-07-02T04:45:31.491Z,5.87
2017-07-02T04:47:58.963Z,6.10
2017-07-02T04:50:26.431Z,6.00
2017-07-02T04:52:53.952Z,6.53
2017-07-02T04:55:22.249Z,5.90
2017-07-02T04:57:49.705Z,5.93
2017-07-02T05:00:17.171Z,6.57
2017-07-02T05:02:44.670Z,4.80
2017-07-02T05:05:12.221Z,4.80
2017-07-02T05:07:39.681Z,4.77
2017-07-02T05:10:07.143Z,4.60
2017-07-02T05:12:35.370Z,3.93
2017-07-02T05:15:02.867Z,3.90
2017-07-02T05:17:30.375Z,4.63
2017-07-02T05:19:57.828Z,4.30
2017-07-02T05:22:25.316Z,3.63
2017-07-02T05:24:52.825Z,4.30
2017-07-02T05:27:21.065Z,4.20
2017-07-02T05:29:48.523Z,4.20
2017-07-02T05:32:16.066Z,4.00
2017-07-02T05:34:43.576Z,3.43
2017-07-02T05:37:11.040Z,3.77
2017-07-02T05:39:38.585Z,3.40
2017-07-02T05:42:06.047Z,4.00
2017-07-02T05:44:33.534Z,3.00
2017-07-02T05:47:01.018Z,2.73
2017-07-02T05:49:28.478Z,2.40
2017-07-02T05:51:55.937Z,3.60
2017-07-02T05:54:23.409Z,3.10
2017-07-02T05:56:50.965Z,2.87
2017-07-02T05:59:18.442Z,2.93
2017-07-02T06:01:46.011Z,2.33
2017-07-02T06:04:13.469Z,2.20
2017-07-02T06:06:40.982Z,1.90
2017-07-02T06:09:08.556Z,2.27
2017-07-02T06:11:36.842Z,1.83
2017-07-02T06:14:05.065Z,2.10
2017-07-02T06:16:33.876Z,1.80
2017-07-02T06:19:01.363Z,1.50
2017-07-02T06:21:29.577Z,1.40
2017-07-02T06:23:57.058Z,1.60
2017-07-02T06:26:24.533Z,1.50
2017-07-02T06:28:51.990Z,1.43
2017-07-02T06:31:19.643Z,1.40
2017-07-02T06:33:47.101Z,1.53
2017-07-02T06:36:14.663Z,1.50
2017-07-02T06:38:42.136Z,1.40
2017-07-02T06:41:10.350Z,1.50
2017-07-02T06:43:37.851Z,1.77
2017-07-02T06:46:05.365Z,1.87
2017-07-02T06:48:32.861Z,1.50
2017-07-02T06:51:00.418Z,1.60
2017-07-02T06:53:27.980Z,1.50
2017-07-02T06:55:55.544Z,1.50
2017-07-02T06:58:23.028Z,1.43
2017-07-02T07:00:50.558Z,1.80
2017-07-02T07:03:18.016Z,1.40
2017-07-02T07:05:45.471Z,2.30
2017-07-02T07:08:12.953Z,1.93
2017-07-02T07:10:41.198Z,1.80
2017-07-02T07:13:08.659Z,1.50
2017-07-02T07:15:36.227Z,2.07
2017-07-02T07:18:03.803Z,1.50
2017-07-02T07:20:32.034Z,1.80
2017-07-02T07:22:59.495Z,1.40
2017-07-02T07:25:26.977Z,1.90
2017-07-02T07:27:55.247Z,2.07
2017-07-02T07:30:22.711Z,2.10
2017-07-02T07:32:50.970Z,2.20
2017-07-02T07:35:18.455Z,1.90
2017-07-02T07:37:46.707Z,2.50
2017-07-02T07:40:14.165Z,1.63
2017-07-02T07:42:41.622Z,2.20
2017-07-02T07:45:09.070Z,2.37
2017-07-02T07:47:36.535Z,2.00
2017-07-02T07:50:04.031Z,2.37
2017-07-02T07:52:31.479Z,2.20
2017-07-02T07:54:58.937Z,2.40
2017-07-02T07:57:26.410Z,1.90
2017-07-02T07:59:53.879Z,2.40
2017-07-02T08:02:21.537Z,1.83
2017-07-02T08:04:49.018Z,1.80
2017-07-02T08:07:16.490Z,2.00
2017-07-02T08:09:43.981Z,1.90
2017-07-02T08:12:11.504Z,1.90
2017-07-02T08:14:38.966Z,1.97
2017-07-02T08:17:07.206Z,1.73
2017-07-02T08:19:34.708Z,1.97
2017-07-02T08:22:02.249Z,5.47
2017-07-02T08:24:29.719Z,17.93
2017-07-02T08:26:57.266Z,24.33
2017-07-02T08:29:24.745Z,20.53
2017-07-02T08:31:52.282Z,19.43
2017-07-02T08:34:19.839Z,15.80
2017-07-02T08:36:47.301Z,17.50
2017-07-02T08:39:14.872Z,15.90
2017-07-02T08:41:43.129Z,14.27
2017-07-02T08:44:10.699Z,15.53
2017-07-02T08:46:38.966Z,13.80
2017-07-02T08:49:06.447Z,12.23
2017-07-02T08:51:35.366Z,12.50
2017-07-02T08:54:02.827Z,12.40
2017-07-02T08:56:30.323Z,12.40
2017-07-02T08:58:57.796Z,11.60
2017-07-02T09:01:25.252Z,7.93
2017-07-02T09:03:54.561Z,7.93
2017-07-02T09:06:22.783Z,11.40
2017-07-02T09:08:50.276Z,8.80
2017-07-02T09:11:17.836Z,13.70
2017-07-02T09:13:45.295Z,13.47
2017-07-02T09:16:12.854Z,11.30
2017-07-02T09:18:41.114Z,9.90
2017-07-02T09:21:08.636Z,8.97
2017-07-02T09:23:36.102Z,8.60
2017-07-02T09:26:03.674Z,6.90
2017-07-02T09:28:31.145Z,7.73
2017-07-02T09:30:58.711Z,7.53
2017-07-02T09:33:26.186Z,5.03
2017-07-02T09:35:54.452Z,5.80
2017-07-02T09:38:22.734Z,5.30
2017-07-02T09:40:51.005Z,6.43
2017-07-02T09:43:19.234Z,5.97
2017-07-02T09:45:46.721Z,5.87
2017-07-02T09:48:14.198Z,5.10
2017-07-02T09:50:42.416Z,4.47
2017-07-02T09:53:09.875Z,4.53
2017-07-02T09:55:37.370Z,4.50
2017-07-02T09:58:04.933Z,4.83
2017-07-02T10:00:32.419Z,4.20
2017-07-02T10:03:00.134Z,4.57
2017-07-02T10:05:27.624Z,3.90
2017-07-02T10:07:56.703Z,3.93
2017-07-02T10:10:24.946Z,5.07
2017-07-02T10:12:52.403Z,4.00
2017-07-02T10:15:19.858Z,4.00
2017-07-02T10:17:47.340Z,3.57
2017-07-02T10:20:14.790Z,4.13
2017-07-02T10:22:42.356Z,4.07
2017-07-02T10:25:10.604Z,4.77
2017-07-02T10:27:38.073Z,3.37
2017-07-02T10:30:05.557Z,4.17
2017-07-02T10:32:33.107Z,3.60
2017-07-02T10:35:00.558Z,3.80
2017-07-02T10:37:28.083Z,4.23
2017-07-02T10:39:55.583Z,3.70
2017-07-02T10:42:23.053Z,3.27
2017-07-02T10:44:51.274Z,3.10
2017-07-02T10:47:18.729Z,3.60
2017-07-02T10:49:46.218Z,3.30
2017-07-02T10:52:13.683Z,3.93
2017-07-02T10:54:41.935Z,2.80
2017-07-02T10:57:09.513Z,2.73
2017-07-02T10:59:37.759Z,3.17
2017-07-02T11:02:05.225Z,3.20
2017-07-02T11:04:32.679Z,3.10
2017-07-02T11:07:00.155Z,3.17
2017-07-02T11:09:27.642Z,3.17
2017-07-02T11:11:55.106Z,3.10
2017-07-02T11:14:22.566Z,2.10
2017-07-02T11:16:50.087Z,2.53
2017-07-02T11:19:17.655Z,2.60
2017-07-02T11:21:45.915Z,3.40
2017-07-02T11:24:13.381Z,2.30
2017-07-02T11:26:40.938Z,2.70
2017-07-02T11:29:08.387Z,2.43
2017-07-02T11:31:35.855Z,2.53
2017-07-02T11:34:04.076Z,2.17
2017-07-02T11:36:31.549Z,2.20
2017-07-02T11:38:59.050Z,2.20
2017-07-02T11:41:27.280Z,2.80
2017-07-02T11:43:54.758Z,1.90
2017-07-02T11:46:22.232Z,2.43
2017-07-02T11:48:50.506Z,3.03
2017-07-02T11:51:18.783Z,3.00
2017-07-02T11:53:47.043Z,1.87
2017-07-02T11:56:14.501Z,2.20
2017-07-02T11:58:42.017Z,2.47
2017-07-02T12:01:09.526Z,1.97
2017-07-02T12:03:37.086Z,2.30
2017-07-02T12:06:04.646Z,2.53
2017-07-02T12:08:32.184Z,2.50
2017-07-02T12:10:59.667Z,2.40
2017-07-02T12:13:27.903Z,3.20
2017-07-02T12:15:55.375Z,2.00
2017-07-02T12:18:22.843Z,2.10
2017-07-02T12:20:50.309Z,2.63
2017-07-02T12:23:18.534Z,3.10
2017-07-02T12:25:46.029Z,2.30
2017-07-02T12:28:13.501Z,1.93
2017-07-02T12:30:41.753Z,2.10
2017-07-02T12:33:09.308Z,2.50
2017-07-02T12:35:36.889Z,3.00
2017-07-02T12:38:05.154Z,2.10
2017-07-02T12:40:32.626Z,2.10
2017-07-02T12:43:00.862Z,3.10
2017-07-02T12:45:28.346Z,2.10
2017-07-02T12:47:55.892Z,2.00
2017-07-02T12:50:23.977Z,2.53
2017-07-02T12:52:51.447Z,1.73
2017-07-02T12:55:19.681Z,2.50
2017-07-02T12:57:47.295Z,2.00
2017-07-02T13:00:14.837Z,2.77
2017-07-02T13:02:43.085Z,2.47
2017-07-02T13:05:10.557Z,2.00
2017-07-02T13:07:38.023Z,2.13
2017-07-02T13:10:06.445Z,2.10
2017-07-02T13:12:33.994Z,1.70
2017-07-02T13:15:01.463Z,2.03
2017-07-02T13:17:28.925Z,1.60
2017-07-02T13:19:56.393Z,2.53
2017-07-02T13:22:23.880Z,1.77
2017-07-02T13:24:51.445Z,2.10
2017-07-02T13:27:18.979Z,2.93
2017-07-02T13:29:46.448Z,1.80
2017-07-02T13:32:14.002Z,2.33
2017-07-02T13:34:41.492Z,2.17
2017-07-02T13:37:09.747Z,2.23
2017-07-02T13:39:37.213Z,3.00
2017-07-02T13:42:05.514Z,1.90
2017-07-02T13:44:33.039Z,1.60
2017-07-02T13:47:01.358Z,2.07
2017-07-02T13:49:28.831Z,2.77
2017-07-02T13:51:56.312Z,2.23
2017-07-02T13:54:23.799Z,2.50
2017-07-02T13:56:52.031Z,2.67
2017-07-02T13:59:19.543Z,2.10
2017-07-02T14:01:47.048Z,2.20
2017-07-02T14:04:14.534Z,2.23
2017-07-02T14:06:42.001Z,2.40
2017-07-02T14:09:10.723Z,2.20
2017-07-02T14:11:38.249Z,2.37
2017-07-02T14:14:06.478Z,2.47
2017-07-02T14:16:34.178Z,2.70
2017-07-02T14:19:02.454Z,2.80
2017-07-02T14:21:30.694Z,2.50
2017-07-02T14:23:58.146Z,2.90
2017-07-02T14:26:25.627Z,2.63
2017-07-02T14:28:53.178Z,2.50
2017-07-02T14:31:20.652Z,2.57
2017-07-02T14:33:48.198Z,2.57
2017-07-02T14:36:15.662Z,2.33
2017-07-02T14:38:43.124Z,2.10
2017-07-02T14:41:10.591Z,1.70
2017-07-02T14:43:38.846Z,2.13
2017-07-02T14:46:06.358Z,2.77
2017-07-02T14:48:33.823Z,2.63
2017-07-02T14:51:01.290Z,2.57
2017-07-02T14:53:28.769Z,2.50
2017-07-02T14:55:56.326Z,3.37
2017-07-02T14:58:23.787Z,2.33
2017-07-02T15:00:51.249Z,1.73
2017-07-02T15:03:19.493Z,2.30
2017-07-02T15:05:46.969Z,3.10
2017-07-02T15:08:14.495Z,2.73
2017-07-02T15:10:41.974Z,2.60
2017-07-02T15:13:09.506Z,2.83
2017-07-02T15:15:36.962Z,3.30
2017-07-02T15:18:04.476Z,3.07
2017-07-02T15:20:31.923Z,2.27
2017-07-02T15:25:36.903Z,2.40
2017-07-02T15:28:04.382Z,3.30
2017-07-02T15:30:31.849Z,3.10
2017-07-02T15:32:59.319Z,3.30
2017-07-02T15:35:26.778Z,3.10
2017-07-02T15:37:54.257Z,3.93
2017-07-02T15:40:21.710Z,2.40
2017-07-02T15:42:49.179Z,2.87
2017-07-02T15:45:16.638Z,12.53
2017-07-02T15:47:44.166Z,23.20
2017-07-02T15:50:11.635Z,28.60
2017-07-02T15:52:39.090Z,28.40
2017-07-02T15:55:06.550Z,22.20
2017-07-02T15:57:34.044Z,20.00
2017-07-02T16:00:01.530Z,14.53
2017-07-02T16:02:29.003Z,12.00
2017-07-02T16:04:56.484Z,10.63
2017-07-02T16:07:23.961Z,9.43
2017-07-02T16:09:51.457Z,7.30
2017-07-02T16:12:18.943Z,5.47
2017-07-02T16:14:46.411Z,6.40
2017-07-02T16:17:13.927Z,5.50
2017-07-02T16:19:41.399Z,3.73
2017-07-02T16:22:08.866Z,3.80
2017-07-02T16:24:36.327Z,4.00
2017-07-02T16:27:03.800Z,3.40
2017-07-02T16:29:32.030Z,3.47
2017-07-02T16:31:59.507Z,3.67
2017-07-02T16:34:26.971Z,2.80
2017-07-02T16:36:54.440Z,3.00
2017-07-02T16:39:21.894Z,2.60
2017-07-02T16:41:49.365Z,2.80
2017-07-02T16:44:17.589Z,2.83
2017-07-02T16:46:45.063Z,3.20
2017-07-02T16:49:12.534Z,2.90
2017-07-02T16:51:40.059Z,3.37
2017-07-02T16:54:07.547Z,2.50
2017-07-02T16:56:35.035Z,2.60
2017-07-02T16:59:02.510Z,2.60
2017-07-02T17:01:29.985Z,2.43
2017-07-02T17:03:57.451Z,3.17
2017-07-02T17:06:24.905Z,2.20
2017-07-02T17:08:52.370Z,2.50
2017-07-02T17:11:19.843Z,2.30
2017-07-02T17:13:47.311Z,2.40
2017-07-02T17:16:14.762Z,2.27
2017-07-02T17:18:42.227Z,2.53
2017-07-02T17:21:09.730Z,1.67
2017-07-02T17:23:37.194Z,2.50
2017-07-02T17:26:04.711Z,1.87
2017-07-02T17:28:32.947Z,1.80
2017-07-02T17:31:00.426Z,1.60
2017-07-02T17:33:28.709Z,2.20
2017-07-02T17:35:56.941Z,2.07
2017-07-02T17:38:24.421Z,1.23
2017-07-02T17:40:51.888Z,1.70
2017-07-02T17:43:20.117Z,1.70
2017-07-02T17:45:47.578Z,1.93
2017-07-02T17:48:15.034Z,2.00
2017-07-02T17:50:42.495Z,2.70
2017-07-02T17:53:09.971Z,3.07
2017-07-02T17:55:37.440Z,1.43
2017-07-02T17:58:04.915Z,2.20
2017-07-02T18:00:32.377Z,1.97
2017-07-02T18:02:59.847Z,1.87
2017-07-02T18:05:27.330Z,2.23
2017-07-02T18:07:54.788Z,2.47
2017-07-02T18:10:22.282Z,2.53
2017-07-02T18:12:49.755Z,2.20
2017-07-02T18:15:17.199Z,2.20
2017-07-02T18:17:44.657Z,2.20
2017-07-02T18:20:12.135Z,1.80
2017-07-02T18:22:39.675Z,2.90
2017-07-02T18:25:07.902Z,2.00
2017-07-02T18:27:35.396Z,2.63
2017-07-02T18:30:02.961Z,2.47
2017-07-02T18:32:30.426Z,2.27
2017-07-02T18:34:58.694Z,2.77
2017-07-02T18:37:26.938Z,2.00
2017-07-02T18:39:54.422Z,1.83
2017-07-02T18:42:21.893Z,2.20
2017-07-02T18:44:50.119Z,2.33
2017-07-02T18:47:17.593Z,2.27
2017-07-02T18:49:45.062Z,2.00
2017-07-02T18:52:12.522Z,1.80
2017-07-02T18:54:40.101Z,2.20
2017-07-02T18:57:07.619Z,2.30
2017-07-02T18:59:35.082Z,2.17
2017-07-02T19:02:02.655Z,2.67
2017-07-02T19:04:30.154Z,2.10
2017-07-02T19:06:57.688Z,2.07
2017-07-02T19:09:25.283Z,1.87
2017-07-02T19:11:52.764Z,2.10
2017-07-02T19:14:20.233Z,2.10
2017-07-02T19:16:47.815Z,3.30
2017-07-02T19:19:15.287Z,2.37
2017-07-02T19:21:42.744Z,1.80
2017-07-02T19:24:10.202Z,2.00
2017-07-02T19:26:37.685Z,1.93
2017-07-02T19:29:05.366Z,2.13
2017-07-02T19:31:32.835Z,1.93
2017-07-02T19:34:00.295Z,1.80
2017-07-02T19:36:27.778Z,2.57
2017-07-02T19:38:55.251Z,2.47
2017-07-02T19:41:22.722Z,2.00
2017-07-02T19:43:50.255Z,1.93
2017-07-02T19:46:17.726Z,1.50
2017-07-02T19:48:45.270Z,2.37
2017-07-02T19:51:12.770Z,3.47
2017-07-02T19:53:40.229Z,2.10
2017-07-02T19:56:08.101Z,2.17
2017-07-02T19:58:35.750Z,2.03
2017-07-02T20:01:03.246Z,2.20
2017-07-02T20:03:30.721Z,2.67
2017-07-02T20:05:58.186Z,2.20
2017-07-02T20:08:25.734Z,2.20
2017-07-02T20:10:53.573Z,2.50
2017-07-02T20:13:21.591Z,2.33
2017-07-02T20:15:49.073Z,2.87
2017-07-02T20:18:16.574Z,1.97
2017-07-02T20:20:44.951Z,2.83
2017-07-02T20:23:12.457Z,1.93
2017-07-02T20:25:40.028Z,1.87
2017-07-02T20:28:08.581Z,4.17
2017-07-02T20:30:36.111Z,1.80
2017-07-02T20:33:04.372Z,2.30
2017-07-02T20:35:32.622Z,2.20
2017-07-02T20:38:00.185Z,2.37
2017-07-02T20:40:27.721Z,1.90
2017-07-02T20:42:55.262Z,2.50
2017-07-02T20:45:22.793Z,2.10
2017-07-02T20:47:50.301Z,1.90
2017-07-02T20:50:18.406Z,2.67
2017-07-02T20:52:45.899Z,2.17
2017-07-02T20:55:13.358Z,2.90
2017-07-02T20:57:40.885Z,2.23
2017-07-02T21:00:08.351Z,2.13
2017-07-02T21:02:36.616Z,2.10
2017-07-02T21:05:04.070Z,2.20
2017-07-02T21:07:31.534Z,2.57
2017-07-02T21:09:59.095Z,1.80
2017-07-02T21:12:26.655Z,2.70
2017-07-02T21:14:54.127Z,2.17
2017-07-02T21:17:22.458Z,2.77
2017-07-02T21:19:49.924Z,2.50
2017-07-02T21:22:17.402Z,2.20
2017-07-02T21:24:44.851Z,2.97
2017-07-02T21:27:12.415Z,1.93
2017-07-02T21:29:39.882Z,2.90
2017-07-02T21:32:08.126Z,2.80
2017-07-02T21:34:35.609Z,2.40
2017-07-02T21:37:03.063Z,2.13
2017-07-02T21:39:31.341Z,2.10
2017-07-02T21:41:58.898Z,2.13
2017-07-02T21:44:26.449Z,2.40
2017-07-02T21:46:53.912Z,2.57
2017-07-02T21:49:21.387Z,3.20
2017-07-02T21:51:49.652Z,3.37
2017-07-02T21:54:17.149Z,2.07
2017-07-02T21:56:44.606Z,2.10
2017-07-02T21:59:12.059Z,3.00
2017-07-02T22:01:39.593Z,2.83
2017-07-02T22:04:07.134Z,2.70
2017-07-02T22:06:35.362Z,2.57
2017-07-02T22:09:02.838Z,2.73
2017-07-02T22:11:30.299Z,3.30
2017-07-02T22:13:57.756Z,2.87
2017-07-02T22:16:25.220Z,2.43
2017-07-02T22:18:52.793Z,3.17
2017-07-02T22:21:20.329Z,2.40
2017-07-02T22:23:47.798Z,2.13
2017-07-02T22:26:15.262Z,1.97
2017-07-02T22:28:42.726Z,2.57
2017-07-02T22:31:10.973Z,1.83
2017-07-02T22:33:38.465Z,3.20
2017-07-02T22:36:06.686Z,2.40
2017-07-02T22:38:34.239Z,2.87
2017-07-02T22:41:01.703Z,3.53
2017-07-02T22:43:29.159Z,3.10
2017-07-02T22:45:56.637Z,2.60
2017-07-02T22:48:24.100Z,2.90
2017-07-02T22:50:51.546Z,2.37
2017-07-02T22:53:19.038Z,3.00
2017-07-02T22:55:46.570Z,3.10
2017-07-02T22:58:14.137Z,2.60
2017-07-02T23:00:41.594Z,2.40
2017-07-02T23:03:09.069Z,2.43
2017-07-02T23:05:37.293Z,2.40
2017-07-02T23:08:05.747Z,2.43
2017-07-02T23:10:33.314Z,2.10
2017-07-02T23:13:00.797Z,2.67
2017-07-02T23:15:28.283Z,2.40
2017-07-02T23:17:56.543Z,2.47
2017-07-02T23:20:24.035Z,2.73
2017-07-02T23:22:51.570Z,3.03
2017-07-02T23:25:19.834Z,3.17
2017-07-02T23:27:47.350Z,3.33
2017-07-02T23:30:14.859Z,2.90
2017-07-02T23:32:42.412Z,2.47
2017-07-02T23:35:09.924Z,2.43
2017-07-02T23:37:37.431Z,2.50
2017-07-02T23:40:04.882Z,3.43
2017-07-02T23:42:32.439Z,2.07
2017-07-02T23:44:59.906Z,2.63
2017-07-02T23:47:28.149Z,2.53
2017-07-02T23:49:55.603Z,2.73
2017-07-02T23:52:23.079Z,2.70
2017-07-02T23:54:50.541Z,2.33
2017-07-02T23:57:17.998Z,2.73
2017-07-02T23:59:45.557Z,2.60
